createdAt,value
2018-11-07T00:00:38.389Z,98.57
2018-11-07T00:03:06.214Z,98.63
2018-11-07T00:05:33.993Z,98.61
2018-11-07T00:08:01.857Z,98.28
2018-11-07T00:10:29.512Z,98.37
2018-11-07T00:12:57.212Z,98.67
2018-11-07T00:15:24.965Z,98.43
2018-11-07T00:17:52.686Z,98.18
2018-11-07T00:20:20.400Z,98.65
2018-11-07T00:22:48.201Z,98.62
2018-11-07T00:25:15.911Z,98.42
2018-11-07T00:27:43.630Z,98.30
2018-11-07T00:30:11.736Z,98.41
2018-11-07T00:32:39.888Z,98.31
2018-11-07T00:35:08.706Z,98.08
2018-11-07T00:37:36.418Z,98.05
2018-11-07T00:40:04.253Z,98.59
2018-11-07T00:42:32.022Z,98.05
2018-11-07T00:44:59.735Z,98.24
2018-11-07T00:47:27.861Z,98.54
2018-11-07T00:49:55.570Z,98.49
2018-11-07T00:52:23.255Z,98.46
2018-11-07T00:54:51.024Z,98.57
2018-11-07T00:57:18.789Z,98.15
2018-11-07T00:59:46.498Z,98.18
2018-11-07T01:02:14.223Z,98.36
2018-11-07T01:04:41.946Z,98.20
2018-11-07T01:07:09.651Z,97.94
2018-11-07T01:09:37.579Z,97.89
2018-11-07T01:12:05.378Z,98.06
2018-11-07T01:14:33.110Z,97.88
2018-11-07T01:17:00.897Z,97.83
2018-11-07T01:19:28.590Z,97.95
2018-11-07T01:21:56.307Z,97.84
2018-11-07T01:24:24.027Z,98.06
2018-11-07T01:26:51.755Z,97.79
2018-11-07T01:29:19.499Z,98.27
2018-11-07T01:31:47.215Z,97.76
2018-11-07T01:34:14.931Z,97.94
2018-11-07T01:36:42.685Z,98.26
2018-11-07T01:39:10.747Z,97.92
2018-11-07T01:41:38.971Z,98.01
2018-11-07T01:44:06.818Z,98.18
2018-11-07T01:46:34.603Z,98.01
2018-11-07T01:49:02.335Z,98.05
2018-11-07T01:51:30.077Z,97.97
2018-11-07T01:53:57.858Z,98.14
2018-11-07T01:56:25.602Z,97.78
2018-11-07T01:58:53.336Z,97.60
2018-11-07T02:01:21.154Z,97.58
2018-11-07T02:03:48.862Z,97.68
2018-11-07T02:06:16.591Z,97.24
2018-11-07T02:08:44.350Z,97.07
2018-11-07T02:11:12.071Z,97.50
2018-11-07T02:13:39.775Z,96.96
2018-11-07T02:16:07.506Z,97.15
2018-11-07T02:18:35.247Z,97.33
2018-11-07T02:21:03.041Z,97.50
2018-11-07T02:23:30.754Z,97.29
2018-11-07T02:25:58.518Z,97.53
2018-11-07T02:28:26.233Z,97.38
2018-11-07T02:30:53.993Z,97.33
2018-11-07T02:33:21.754Z,97.59
2018-11-07T02:35:49.520Z,97.22
2018-11-07T02:38:17.250Z,97.79
2018-11-07T02:40:45.032Z,97.53
2018-11-07T02:43:12.779Z,97.24
2018-11-07T02:45:40.519Z,97.74
2018-11-07T02:48:08.261Z,97.22
2018-11-07T02:50:35.987Z,97.53
2018-11-07T02:53:03.719Z,97.83
2018-11-07T02:55:31.475Z,97.74
2018-11-07T02:57:59.238Z,97.48
2018-11-07T03:00:26.938Z,97.52
2018-11-07T03:02:54.691Z,97.79
2018-11-07T03:05:22.434Z,97.65
2018-11-07T03:07:50.148Z,97.24
2018-11-07T03:10:17.937Z,97.95
2018-11-07T03:12:45.675Z,97.45
2018-11-07T03:15:13.407Z,97.69
2018-11-07T03:17:41.146Z,97.38
2018-11-07T03:20:10.448Z,97.61
2018-11-07T03:22:38.198Z,97.50
2018-11-07T03:25:06.258Z,97.54
2018-11-07T03:27:34.226Z,97.52
2018-11-07T03:30:02.002Z,97.51
2018-11-07T03:32:29.719Z,97.73
2018-11-07T03:34:57.618Z,97.49
2018-11-07T03:37:25.402Z,97.53
2018-11-07T03:39:53.163Z,97.69
2018-11-07T03:42:20.875Z,97.48
2018-11-07T03:44:48.640Z,97.58
2018-11-07T03:47:16.425Z,97.74
2018-11-07T03:49:44.203Z,97.48
2018-11-07T03:52:11.933Z,97.45
2018-11-07T03:54:39.674Z,97.77
2018-11-07T03:57:07.544Z,97.60
2018-11-07T03:59:35.269Z,97.81
2018-11-07T04:02:03.041Z,97.56
2018-11-07T04:04:30.820Z,97.58
2018-11-07T04:06:58.550Z,97.32
2018-11-07T04:09:26.271Z,97.38
2018-11-07T04:11:53.985Z,97.50
2018-11-07T04:14:21.698Z,97.59
2018-11-07T04:16:49.470Z,97.56
2018-11-07T04:19:17.186Z,97.64
2018-11-07T04:21:44.954Z,97.73
2018-11-07T04:24:12.708Z,97.78
2018-11-07T04:26:40.425Z,97.95
2018-11-07T04:29:08.141Z,97.78
2018-11-07T04:31:35.878Z,97.73
2018-11-07T04:34:03.573Z,97.78
2018-11-07T04:36:31.298Z,97.92
2018-11-07T04:38:59.106Z,97.90
2018-11-07T04:41:26.790Z,97.76
2018-11-07T04:43:54.541Z,97.83
2018-11-07T04:46:22.280Z,97.72
2018-11-07T04:48:50.009Z,97.48
2018-11-07T04:51:17.751Z,97.75
2018-11-07T04:53:45.470Z,97.94
2018-11-07T04:56:13.177Z,97.87
2018-11-07T04:58:40.915Z,97.70
2018-11-07T05:01:08.611Z,97.74
2018-11-07T05:03:36.437Z,97.39
2018-11-07T05:06:04.224Z,97.46
2018-11-07T05:08:32.027Z,97.75
2018-11-07T05:10:59.700Z,97.88
2018-11-07T05:13:27.414Z,97.76
2018-11-07T05:15:55.177Z,97.92
2018-11-07T05:18:23.061Z,97.69
2018-11-07T05:20:50.981Z,97.76
2018-11-07T05:23:18.706Z,97.75
2018-11-07T05:25:46.424Z,97.57
2018-11-07T05:28:14.282Z,97.75
2018-11-07T05:30:41.991Z,97.95
2018-11-07T05:33:09.703Z,97.76
2018-11-07T05:35:37.454Z,97.92
2018-11-07T05:38:05.306Z,97.90
2018-11-07T05:40:33.023Z,98.01
2018-11-07T05:43:00.741Z,97.87
2018-11-07T05:45:28.552Z,97.89
2018-11-07T05:47:56.259Z,97.66
2018-11-07T05:50:23.960Z,97.73
2018-11-07T05:52:51.682Z,97.88
2018-11-07T05:55:19.419Z,97.55
2018-11-07T05:57:47.165Z,97.95
2018-11-07T06:00:14.997Z,98.03
2018-11-07T06:02:42.743Z,97.88
2018-11-07T06:05:11.445Z,97.87
2018-11-07T06:07:39.712Z,97.65
2018-11-07T06:10:09.741Z,97.93
2018-11-07T06:12:37.894Z,97.68
2018-11-07T06:15:06.895Z,98.00
2018-11-07T06:17:34.655Z,97.86
2018-11-07T06:20:02.446Z,97.85
2018-11-07T06:22:30.210Z,97.79
2018-11-07T06:24:57.942Z,97.89
2018-11-07T06:27:25.643Z,97.87
2018-11-07T06:29:53.351Z,98.03
2018-11-07T06:32:21.068Z,97.91
2018-11-07T06:34:48.823Z,97.60
2018-11-07T06:37:16.547Z,98.09
2018-11-07T06:39:44.289Z,98.04
2018-11-07T06:42:12.038Z,97.93
2018-11-07T06:44:39.844Z,97.91
2018-11-07T06:47:07.553Z,97.83
2018-11-07T06:49:35.290Z,98.09
2018-11-07T06:52:03.043Z,98.07
2018-11-07T06:54:30.787Z,97.70
2018-11-07T06:56:58.508Z,97.96
2018-11-07T06:59:26.222Z,97.82
2018-11-07T07:01:53.986Z,97.92
2018-11-07T07:04:21.687Z,97.97
2018-11-07T07:06:49.400Z,97.81
2018-11-07T07:09:17.156Z,98.20
2018-11-07T07:11:44.882Z,98.16
2018-11-07T07:14:12.594Z,98.19
2018-11-07T07:16:40.361Z,98.19
2018-11-07T07:19:08.081Z,98.31
2018-11-07T07:21:35.801Z,98.33
2018-11-07T07:24:03.623Z,98.19
2018-11-07T07:26:31.422Z,98.23
2018-11-07T07:28:59.150Z,98.39
2018-11-07T07:31:26.925Z,98.33
2018-11-07T07:33:54.631Z,98.26
2018-11-07T07:36:22.339Z,98.42
2018-11-07T07:38:50.234Z,98.05
2018-11-07T07:41:17.989Z,98.46
2018-11-07T07:43:45.716Z,98.37
2018-11-07T07:46:13.526Z,98.28
2018-11-07T07:48:41.252Z,98.24
2018-11-07T07:51:08.967Z,98.47
2018-11-07T07:53:36.751Z,98.50
2018-11-07T07:56:04.561Z,98.27
2018-11-07T07:58:32.322Z,98.57
2018-11-07T08:01:00.058Z,98.75
2018-11-07T08:03:27.759Z,98.65
2018-11-07T08:05:55.502Z,98.72
2018-11-07T08:08:23.242Z,98.74
2018-11-07T08:10:50.962Z,98.77
2018-11-07T08:13:18.777Z,98.69
2018-11-07T08:15:46.482Z,98.83
2018-11-07T08:18:14.203Z,98.82
2018-11-07T08:20:41.971Z,98.99
2018-11-07T08:23:09.671Z,98.81
2018-11-07T08:25:37.368Z,98.84
2018-11-07T08:28:05.586Z,98.57
2018-11-07T08:30:33.318Z,98.78
2018-11-07T08:33:01.135Z,98.76
2018-11-07T08:35:28.840Z,98.73
2018-11-07T08:37:56.574Z,98.96
2018-11-07T08:40:24.331Z,98.71
2018-11-07T08:42:52.114Z,98.79
2018-11-07T08:45:19.963Z,98.28
2018-11-07T08:47:48.054Z,98.64
2018-11-07T08:50:17.077Z,98.87
2018-11-07T08:52:45.634Z,98.71
2018-11-07T08:55:14.873Z,98.45
2018-11-07T08:57:42.608Z,98.45
2018-11-07T09:00:15.092Z,98.55
2018-11-07T09:02:43.394Z,98.56
2018-11-07T09:05:11.726Z,98.45
2018-11-07T09:07:39.638Z,98.70
2018-11-07T09:10:09.264Z,98.60
2018-11-07T09:12:37.035Z,98.60
2018-11-07T09:15:05.562Z,98.45
2018-11-07T09:17:33.282Z,98.52
2018-11-07T09:20:01.046Z,98.50
2018-11-07T09:22:28.949Z,98.57
2018-11-07T09:24:56.703Z,98.75
2018-11-07T09:27:24.480Z,98.84
2018-11-07T09:29:52.204Z,98.65
2018-11-07T09:32:19.953Z,98.68
2018-11-07T09:34:47.710Z,98.78
2018-11-07T09:37:15.483Z,98.52
2018-11-07T09:39:43.279Z,98.55
2018-11-07T09:42:11.018Z,98.45
2018-11-07T09:44:38.852Z,98.43
2018-11-07T09:47:06.594Z,98.62
2018-11-07T09:49:34.332Z,98.40
2018-11-07T09:52:02.087Z,98.37
2018-11-07T09:54:29.807Z,98.70
2018-11-07T09:56:57.561Z,98.20
2018-11-07T09:59:25.406Z,98.61
2018-11-07T10:01:53.088Z,98.48
2018-11-07T10:04:20.837Z,98.29
2018-11-07T10:06:48.698Z,98.05
2018-11-07T10:09:16.435Z,98.25
2018-11-07T10:11:44.169Z,97.99
2018-11-07T10:14:11.904Z,98.37
2018-11-07T10:16:39.626Z,98.26
2018-11-07T10:19:07.342Z,98.18
2018-11-07T10:21:35.115Z,98.25
2018-11-07T10:24:02.842Z,98.15
2018-11-07T10:26:30.582Z,98.29
2018-11-07T10:28:58.555Z,98.57
2018-11-07T10:31:26.118Z,98.21
2018-11-07T10:33:53.862Z,98.38
2018-11-07T10:36:21.592Z,98.08
2018-11-07T10:38:49.356Z,97.98
2018-11-07T10:41:17.097Z,97.81
2018-11-07T10:43:44.822Z,97.80
2018-11-07T10:46:12.568Z,98.08
2018-11-07T10:48:40.329Z,97.82
2018-11-07T10:51:08.079Z,97.72
2018-11-07T10:53:35.898Z,97.74
2018-11-07T10:56:03.653Z,97.87
2018-11-07T10:58:31.367Z,97.82
2018-11-07T11:01:04.682Z,97.92
2018-11-07T11:03:32.442Z,98.13
2018-11-07T11:06:00.298Z,97.90
2018-11-07T11:08:28.047Z,97.94
2018-11-07T11:10:55.784Z,97.93
2018-11-07T11:13:24.443Z,97.91
2018-11-07T11:15:52.171Z,98.00
2018-11-07T11:18:19.918Z,98.15
2018-11-07T11:20:47.690Z,97.99
2018-11-07T11:23:15.403Z,98.02
2018-11-07T11:25:43.133Z,97.85
2018-11-07T11:28:10.878Z,97.96
2018-11-07T11:30:38.607Z,97.88
2018-11-07T11:33:06.394Z,98.02
2018-11-07T11:35:34.122Z,97.88
2018-11-07T11:38:01.871Z,97.84
2018-11-07T11:40:29.630Z,98.13
2018-11-07T11:42:57.395Z,98.17
2018-11-07T11:45:25.133Z,98.08
2018-11-07T11:47:52.845Z,97.72
2018-11-07T11:50:21.211Z,97.97
2018-11-07T11:52:49.453Z,97.83
2018-11-07T11:55:17.170Z,97.88
2018-11-07T11:57:45.453Z,97.74
2018-11-07T12:00:20.727Z,97.97
2018-11-07T12:02:48.819Z,97.90
2018-11-07T12:05:17.502Z,97.84
2018-11-07T12:07:45.268Z,97.75
2018-11-07T12:10:26.352Z,97.83
2018-11-07T12:12:55.287Z,97.71
2018-11-07T12:15:24.375Z,97.75
2018-11-07T12:17:52.503Z,97.98
2018-11-07T12:20:20.367Z,97.91
2018-11-07T12:22:48.148Z,98.03
2018-11-07T12:25:16.678Z,97.70
2018-11-07T12:27:44.648Z,97.87
2018-11-07T12:30:16.255Z,97.76
2018-11-07T12:32:45.201Z,97.59
2018-11-07T12:35:13.344Z,97.72
2018-11-07T12:37:41.317Z,97.84
2018-11-07T12:40:09.712Z,97.80
2018-11-07T12:42:37.742Z,97.79
2018-11-07T12:45:06.978Z,97.38
2018-11-07T12:47:34.702Z,97.76
2018-11-07T12:50:02.646Z,97.98
2018-11-07T12:52:30.501Z,97.70
2018-11-07T12:54:58.306Z,97.92
2018-11-07T12:57:26.380Z,97.88
2018-11-07T12:59:53.876Z,97.76
2018-11-07T13:02:21.603Z,97.40
2018-11-07T13:04:49.356Z,97.69
2018-11-07T13:07:17.095Z,97.68
2018-11-07T13:09:44.882Z,97.92
2018-11-07T13:12:12.613Z,97.91
2018-11-07T13:14:40.362Z,98.09
2018-11-07T13:17:08.103Z,98.06
2018-11-07T13:19:35.841Z,98.06
2018-11-07T13:22:03.648Z,97.94
2018-11-07T13:24:31.350Z,97.87
2018-11-07T13:26:59.046Z,97.85
2018-11-07T13:29:26.813Z,97.71
2018-11-07T13:31:54.583Z,98.04
2018-11-07T13:34:22.326Z,97.93
2018-11-07T13:36:50.098Z,98.04
2018-11-07T13:39:18.156Z,98.24
2018-11-07T13:41:45.563Z,98.10
2018-11-07T13:44:13.327Z,98.13
2018-11-07T13:46:41.068Z,98.18
2018-11-07T13:49:08.771Z,98.22
2018-11-07T13:51:36.515Z,98.04
2018-11-07T13:54:04.402Z,98.29
2018-11-07T13:56:32.168Z,97.94
2018-11-07T13:58:59.898Z,97.96
2018-11-07T14:01:28.033Z,98.11
2018-11-07T14:03:55.784Z,98.22
2018-11-07T14:06:23.498Z,98.14
2018-11-07T14:08:51.302Z,98.40
2018-11-07T14:11:19.069Z,98.06
2018-11-07T14:13:46.829Z,97.98
2018-11-07T14:16:14.590Z,98.22
2018-11-07T14:18:42.355Z,97.99
2018-11-07T14:21:10.159Z,98.33
2018-11-07T14:23:37.915Z,98.05
2018-11-07T14:26:05.764Z,98.15
2018-11-07T14:28:33.585Z,98.20
2018-11-07T14:31:01.317Z,98.03
2018-11-07T14:33:29.553Z,98.11
2018-11-07T14:35:57.315Z,98.15
2018-11-07T14:38:25.125Z,98.08
2018-11-07T14:40:52.856Z,98.15
2018-11-07T14:43:20.814Z,98.32
2018-11-07T14:45:48.523Z,98.45
2018-11-07T14:48:16.271Z,98.06
2018-11-07T14:50:44.059Z,98.30
2018-11-07T14:53:12.056Z,98.34
2018-11-07T14:55:39.779Z,98.22
2018-11-07T14:58:07.524Z,98.29
2018-11-07T15:00:35.330Z,98.08
2018-11-07T15:03:03.098Z,98.33
2018-11-07T15:05:30.833Z,98.19
2018-11-07T15:07:58.670Z,98.71
2018-11-07T15:10:26.410Z,98.55
2018-11-07T15:12:54.146Z,98.57
2018-11-07T15:15:21.913Z,98.84
2018-11-07T15:17:49.683Z,98.78
2018-11-07T15:20:18.013Z,98.83
2018-11-07T15:22:45.788Z,98.96
2018-11-07T15:25:14.487Z,98.81
2018-11-07T15:27:43.418Z,98.82
2018-11-07T15:30:12.287Z,98.64
2018-11-07T15:32:40.714Z,98.86
2018-11-07T15:35:08.968Z,98.81
2018-11-07T15:37:37.182Z,98.88
2018-11-07T15:40:06.657Z,98.77
2018-11-07T15:42:34.431Z,98.70
2018-11-07T15:45:02.226Z,99.07
2018-11-07T15:47:29.951Z,98.84
2018-11-07T15:50:03.159Z,99.04
2018-11-07T15:52:30.937Z,99.10
2018-11-07T15:54:58.685Z,98.99
2018-11-07T15:57:27.077Z,99.02
2018-11-07T15:59:54.892Z,98.98
2018-11-07T16:02:22.664Z,99.07
2018-11-07T16:04:50.440Z,99.07
2018-11-07T16:07:18.159Z,98.95
2018-11-07T16:09:45.927Z,99.01
2018-11-07T16:12:13.690Z,98.95
2018-11-07T16:14:41.455Z,99.03
2018-11-07T16:17:09.206Z,99.25
2018-11-07T16:19:36.950Z,99.39
2018-11-07T16:22:05.267Z,99.26
2018-11-07T16:24:33.146Z,99.39
2018-11-07T16:27:00.867Z,99.27
2018-11-07T16:29:28.591Z,99.49
2018-11-07T16:31:56.363Z,99.74
2018-11-07T16:34:24.079Z,99.56
2018-11-07T16:36:51.856Z,99.54
2018-11-07T16:39:19.651Z,99.42
2018-11-07T16:41:47.582Z,99.79
2018-11-07T16:44:15.175Z,99.61
2018-11-07T16:46:42.902Z,99.52
2018-11-07T16:49:10.671Z,100.00
2018-11-07T16:51:38.384Z,99.67
2018-11-07T16:54:07.605Z,99.91
2018-11-07T16:56:35.398Z,99.80
2018-11-07T16:59:03.243Z,100.00
2018-11-07T17:01:30.978Z,99.95
2018-11-07T17:03:58.702Z,100.00
2018-11-07T17:06:26.417Z,100.00
2018-11-07T17:08:54.169Z,100.00
2018-11-07T17:11:21.946Z,100.00
2018-11-07T17:13:49.730Z,99.96
2018-11-07T17:16:17.470Z,100.00
2018-11-07T17:18:45.227Z,100.00
2018-11-07T17:21:13.162Z,100.00
2018-11-07T17:23:40.911Z,100.00
2018-11-07T17:26:08.651Z,100.00
2018-11-07T17:28:36.385Z,100.00
2018-11-07T17:31:04.238Z,100.00
2018-11-07T17:33:32.047Z,100.00
2018-11-07T17:35:59.775Z,100.00
2018-11-07T17:38:27.530Z,100.00
2018-11-07T17:40:55.281Z,100.00
2018-11-07T17:43:23.015Z,100.00
2018-11-07T17:45:50.779Z,100.00
2018-11-07T17:48:18.595Z,100.00
2018-11-07T17:50:46.279Z,100.00
2018-11-07T17:53:14.027Z,100.00
2018-11-07T17:55:41.762Z,100.00
2018-11-07T17:58:09.490Z,100.00
2018-11-07T18:00:37.243Z,100.00
2018-11-07T18:03:05.030Z,100.00
2018-11-07T18:05:32.751Z,100.00
2018-11-07T18:08:00.506Z,100.00
2018-11-07T18:10:28.275Z,100.00
2018-11-07T18:12:56.019Z,100.00
2018-11-07T18:15:23.749Z,100.00
2018-11-07T18:17:51.534Z,100.00
2018-11-07T18:20:19.550Z,100.00
2018-11-07T18:22:47.306Z,100.00
2018-11-07T18:25:15.979Z,100.00
2018-11-07T18:27:43.766Z,100.00
2018-11-07T18:30:13.012Z,100.00
2018-11-07T18:32:41.422Z,100.00
2018-11-07T18:35:10.438Z,100.00
2018-11-07T18:37:38.133Z,100.00
2018-11-07T18:40:08.201Z,100.00
2018-11-07T18:42:35.979Z,100.00
2018-11-07T18:45:04.452Z,100.00
2018-11-07T18:47:32.226Z,100.00
2018-11-07T18:50:00.762Z,100.00
2018-11-07T18:52:28.540Z,100.00
2018-11-07T18:54:56.414Z,100.00
2018-11-07T18:57:24.206Z,100.00
2018-11-07T18:59:51.930Z,100.00
2018-11-07T19:02:19.686Z,100.00
2018-11-07T19:04:47.463Z,100.00
2018-11-07T19:07:15.403Z,100.00
2018-11-07T19:09:43.152Z,100.00
2018-11-07T19:12:10.879Z,100.00
2018-11-07T19:14:38.695Z,100.00
2018-11-07T19:17:06.446Z,100.00
2018-11-07T19:19:34.239Z,100.00
2018-11-07T19:22:01.963Z,100.00
2018-11-07T19:24:29.822Z,100.00
2018-11-07T19:26:57.862Z,100.00
2018-11-07T19:29:25.542Z,100.00
2018-11-07T19:31:53.289Z,100.00
2018-11-07T19:34:21.201Z,100.00
2018-11-07T19:36:48.990Z,100.00
2018-11-07T19:39:16.820Z,100.00
2018-11-07T19:41:44.545Z,100.00
2018-11-07T19:44:12.338Z,100.00
2018-11-07T19:46:40.089Z,100.00
2018-11-07T19:49:07.816Z,100.00
2018-11-07T19:51:35.981Z,100.00
2018-11-07T19:54:03.824Z,100.00
2018-11-07T19:56:31.571Z,100.00
2018-11-07T19:58:59.319Z,100.00
2018-11-07T20:01:27.102Z,100.00
2018-11-07T20:03:54.868Z,100.00
2018-11-07T20:06:22.721Z,100.00
2018-11-07T20:08:50.455Z,100.00
2018-11-07T20:11:18.310Z,100.00
2018-11-07T20:13:46.049Z,100.00
2018-11-07T20:16:13.801Z,100.00
2018-11-07T20:18:41.527Z,100.00
2018-11-07T20:21:09.272Z,100.00
2018-11-07T20:23:37.069Z,100.00
2018-11-07T20:26:04.864Z,100.00
2018-11-07T20:28:32.657Z,100.00
2018-11-07T20:31:00.402Z,100.00
2018-11-07T20:33:28.222Z,100.00
2018-11-07T20:35:56.174Z,100.00
2018-11-07T20:38:23.764Z,100.00
2018-11-07T20:40:51.528Z,100.00
2018-11-07T20:43:19.315Z,100.00
2018-11-07T20:45:47.075Z,100.00
2018-11-07T20:48:14.819Z,100.00
2018-11-07T20:50:42.590Z,100.00
2018-11-07T20:53:10.470Z,100.00
2018-11-07T20:55:38.210Z,100.00
2018-11-07T20:58:06.167Z,99.93
2018-11-07T21:00:33.968Z,100.00
2018-11-07T21:03:01.747Z,100.00
2018-11-07T21:05:29.502Z,99.83
2018-11-07T21:07:57.365Z,99.75
2018-11-07T21:10:25.106Z,99.61
2018-11-07T21:12:52.852Z,99.76
2018-11-07T21:15:21.368Z,99.66
2018-11-07T21:17:49.117Z,99.46
2018-11-07T21:20:16.885Z,99.47
2018-11-07T21:22:44.686Z,99.37
2018-11-07T21:25:12.869Z,99.13
2018-11-07T21:27:40.646Z,98.88
2018-11-07T21:30:09.969Z,99.02
2018-11-07T21:32:38.091Z,99.03
2018-11-07T21:35:06.141Z,99.05
2018-11-07T21:37:33.892Z,98.91
2018-11-07T21:40:01.683Z,98.62
2018-11-07T21:42:29.527Z,98.77
2018-11-07T21:44:57.316Z,98.95
2018-11-07T21:47:25.130Z,98.77
2018-11-07T21:49:52.876Z,98.67
2018-11-07T21:52:20.656Z,98.61
2018-11-07T21:54:48.620Z,98.49
2018-11-07T21:57:16.320Z,98.66
2018-11-07T21:59:44.060Z,98.52
2018-11-07T22:02:11.850Z,98.37
2018-11-07T22:04:39.593Z,98.34
2018-11-07T22:07:07.325Z,98.50
2018-11-07T22:09:35.107Z,98.31
2018-11-07T22:12:02.877Z,98.09
2018-11-07T22:14:30.651Z,98.00
2018-11-07T22:16:58.402Z,98.10
2018-11-07T22:19:26.154Z,98.08
2018-11-07T22:21:53.958Z,97.73
2018-11-07T22:24:21.749Z,98.07
2018-11-07T22:26:49.472Z,97.76
2018-11-07T22:29:17.253Z,97.71
2018-11-07T22:31:45.109Z,97.86
2018-11-07T22:34:12.854Z,97.87
2018-11-07T22:36:40.654Z,97.82
2018-11-07T22:39:10.583Z,97.64
2018-11-07T22:41:38.387Z,97.60
2018-11-07T22:44:06.947Z,97.71
2018-11-07T22:46:35.634Z,97.67
2018-11-07T22:49:03.436Z,97.48
2018-11-07T22:51:31.226Z,97.59
2018-11-07T22:53:59.007Z,97.45
2018-11-07T22:56:26.755Z,97.37
2018-11-07T22:58:54.559Z,97.18
2018-11-07T23:01:23.264Z,97.36
2018-11-07T23:03:52.046Z,97.37
2018-11-07T23:06:19.816Z,97.33
2018-11-07T23:08:47.578Z,97.42
2018-11-07T23:11:15.374Z,97.38
2018-11-07T23:13:43.122Z,97.37
2018-11-07T23:16:10.870Z,97.41
2018-11-07T23:18:38.659Z,97.09
2018-11-07T23:21:06.419Z,97.25
2018-11-07T23:23:34.170Z,97.59
2018-11-07T23:26:01.988Z,97.54
2018-11-07T23:28:29.794Z,97.56
2018-11-07T23:30:57.655Z,97.60
2018-11-07T23:33:25.402Z,97.55
2018-11-07T23:35:53.180Z,97.39
2018-11-07T23:38:20.974Z,97.27
2018-11-07T23:40:48.746Z,97.42
2018-11-07T23:43:16.515Z,97.25
2018-11-07T23:45:44.325Z,97.32
2018-11-07T23:48:12.085Z,97.72
2018-11-07T23:50:39.833Z,97.57
2018-11-07T23:53:07.970Z,97.81
2018-11-07T23:55:35.718Z,97.56
2018-11-07T23:58:03.522Z,97.64
